createdAt,value
2023-03-15T00:00:34.982Z,13.07
2023-03-15T00:04:54.799Z,21.92
2023-03-15T00:09:11.861Z,20.35
2023-03-15T00:13:29.366Z,21.38
2023-03-15T00:17:46.547Z,18.03
2023-03-15T00:22:03.625Z,14.52
2023-03-15T00:26:20.741Z,16.75
2023-03-15T00:30:37.824Z,15.35
2023-03-15T00:34:55.452Z,12.00
2023-03-15T00:39:12.529Z,17.03
2023-03-15T00:43:29.602Z,16.50
2023-03-15T00:47:53.294Z,21.02
2023-03-15T00:52:12.466Z,14.20
2023-03-15T00:56:32.822Z,17.15
2023-03-15T01:00:50.008Z,17.15
2023-03-15T01:05:08.833Z,12.32
2023-03-15T01:09:25.949Z,16.85
2023-03-15T01:13:43.484Z,15.32
2023-03-15T01:18:00.534Z,13.83
2023-03-15T01:22:18.318Z,19.35
2023-03-15T01:26:35.416Z,21.35
2023-03-15T01:30:53.050Z,15.75
2023-03-15T01:35:10.333Z,16.83
2023-03-15T01:39:27.399Z,20.30
2023-03-15T01:43:47.440Z,26.83
2023-03-15T01:48:05.053Z,21.23
2023-03-15T01:52:25.715Z,22.25
2023-03-15T01:56:50.697Z,15.32
2023-03-15T02:01:09.525Z,22.35
2023-03-15T02:05:34.032Z,18.25
2023-03-15T02:09:54.567Z,11.35
2023-03-15T02:14:14.337Z,16.33
2023-03-15T02:18:31.414Z,17.30
2023-03-15T02:23:08.441Z,11.30
2023-03-15T02:27:30.507Z,25.60
2023-03-15T02:31:47.744Z,17.27
2023-03-15T02:36:26.842Z,20.65
2023-03-15T02:45:01.898Z,18.05
2023-03-15T02:49:22.677Z,19.17
2023-03-15T02:53:39.770Z,16.90
2023-03-15T02:57:56.951Z,14.32
2023-03-15T03:02:14.074Z,11.43
2023-03-15T03:06:33.197Z,15.00
2023-03-15T03:10:50.507Z,20.23
2023-03-15T03:15:08.142Z,12.20
2023-03-15T03:19:25.742Z,14.70
2023-03-15T03:23:46.209Z,15.02
2023-03-15T03:28:04.235Z,11.55
2023-03-15T03:32:21.429Z,15.60
2023-03-15T03:36:38.486Z,14.00
2023-03-15T03:40:55.540Z,19.58
2023-03-15T03:45:12.619Z,18.48
2023-03-15T03:49:29.766Z,18.63
2023-03-15T03:53:47.013Z,24.40
2023-03-15T03:58:04.249Z,14.67
2023-03-15T04:02:21.418Z,11.70
2023-03-15T04:06:38.570Z,15.13
2023-03-15T04:10:57.596Z,24.73
2023-03-15T04:15:14.796Z,17.13
2023-03-15T04:19:31.859Z,13.35
2023-03-15T04:23:49.559Z,13.68
2023-03-15T04:28:10.527Z,12.65
2023-03-15T04:32:27.624Z,12.05
2023-03-15T04:36:44.740Z,16.13
2023-03-15T04:41:01.783Z,20.70
2023-03-15T04:45:18.969Z,16.38
2023-03-15T04:49:36.024Z,16.20
2023-03-15T04:53:53.162Z,19.17
2023-03-15T04:58:10.203Z,22.50
2023-03-15T05:02:27.477Z,60.10
2023-03-15T05:06:44.522Z,71.83
2023-03-15T05:11:02.613Z,27.73
2023-03-15T05:15:19.678Z,24.42
2023-03-15T05:19:36.833Z,16.58
2023-03-15T05:23:53.915Z,17.42
2023-03-15T05:28:11.049Z,36.05
2023-03-15T05:32:28.153Z,20.85
2023-03-15T05:36:45.518Z,21.67
2023-03-15T05:41:02.612Z,13.70
2023-03-15T05:45:19.862Z,13.25
2023-03-15T05:49:36.908Z,15.13
2023-03-15T05:53:54.001Z,20.25
2023-03-15T05:58:11.037Z,16.08
2023-03-15T06:02:28.111Z,16.42
2023-03-15T06:06:45.369Z,19.65
2023-03-15T06:11:02.418Z,33.97
2023-03-15T06:15:20.192Z,23.15
2023-03-15T06:19:38.017Z,19.17
2023-03-15T06:23:55.160Z,18.88
2023-03-15T06:28:12.231Z,21.30
2023-03-15T06:32:29.578Z,20.00
2023-03-15T06:36:47.580Z,18.03
2023-03-15T06:41:05.117Z,13.57
2023-03-15T06:45:22.185Z,16.53
2023-03-15T06:49:39.658Z,15.48
2023-03-15T06:53:56.726Z,13.87
2023-03-15T06:58:14.404Z,10.48
2023-03-15T07:02:37.010Z,13.55
2023-03-15T07:06:55.112Z,9.07
2023-03-15T07:11:13.553Z,12.85
2023-03-15T07:15:30.785Z,12.52
2023-03-15T07:19:56.332Z,8.77
2023-03-15T07:24:14.015Z,14.40
2023-03-15T07:28:31.149Z,11.40
2023-03-15T07:32:48.615Z,14.23
2023-03-15T07:37:05.812Z,15.97
2023-03-15T07:41:22.903Z,10.48
2023-03-15T07:45:40.233Z,10.40
2023-03-15T07:49:57.295Z,9.60
2023-03-15T07:54:14.334Z,10.82
2023-03-15T07:58:31.527Z,9.20
2023-03-15T08:02:48.875Z,12.35
2023-03-15T08:07:06.458Z,14.10
2023-03-15T08:11:23.645Z,14.73
2023-03-15T08:15:41.553Z,15.02
2023-03-15T08:19:58.638Z,19.95
2023-03-15T08:24:15.797Z,13.10
2023-03-15T08:28:32.908Z,14.15
2023-03-15T08:32:54.188Z,12.85
2023-03-15T08:37:11.938Z,16.05
2023-03-15T08:41:29.153Z,17.10
2023-03-15T08:46:00.103Z,15.75
2023-03-15T08:50:19.123Z,15.93
2023-03-15T08:54:36.339Z,13.20
2023-03-15T08:58:53.390Z,9.05
2023-03-15T09:03:11.340Z,10.35
2023-03-15T09:07:28.395Z,11.52
2023-03-15T09:11:45.499Z,7.88
2023-03-15T09:16:03.450Z,16.40
2023-03-15T09:20:22.884Z,11.38
2023-03-15T09:24:40.098Z,11.23
2023-03-15T09:28:57.221Z,12.48
2023-03-15T09:33:14.821Z,10.35
2023-03-15T09:37:32.526Z,7.87
2023-03-15T09:41:56.236Z,9.60
2023-03-15T09:46:35.521Z,13.80
2023-03-15T09:55:22.918Z,12.90
2023-03-15T09:59:45.161Z,14.30
2023-03-15T10:04:10.145Z,10.45
2023-03-15T10:08:27.345Z,5.25
2023-03-15T10:12:51.498Z,5.68
2023-03-15T10:17:13.976Z,6.05
2023-03-15T10:21:38.304Z,6.88
2023-03-15T10:25:55.841Z,7.40
2023-03-15T10:30:21.705Z,6.13
2023-03-15T10:34:38.763Z,7.13
2023-03-15T10:38:57.126Z,6.93
2023-03-15T10:43:34.449Z,14.73
2023-03-15T10:47:59.565Z,13.77
2023-03-15T10:52:36.827Z,4.40
2023-03-15T10:57:14.548Z,5.53
2023-03-15T11:01:37.457Z,4.90
2023-03-15T11:05:57.867Z,6.13
2023-03-15T11:10:21.544Z,6.03
2023-03-15T11:14:45.194Z,7.43
2023-03-15T11:19:03.551Z,3.65
2023-03-15T11:27:43.537Z,6.40
2023-03-15T11:32:03.616Z,3.90
2023-03-15T11:36:23.124Z,6.43
2023-03-15T11:40:49.882Z,3.70
2023-03-15T11:45:20.429Z,4.00
2023-03-15T11:49:50.345Z,5.38
2023-03-15T11:54:15.856Z,7.25
2023-03-15T11:58:42.376Z,8.95
2023-03-15T12:03:20.788Z,33.10
2023-03-15T12:07:56.210Z,8.33
2023-03-15T12:12:25.326Z,15.38
2023-03-15T12:16:45.482Z,37.42
2023-03-15T12:21:18.463Z,12.93
2023-03-15T12:25:48.940Z,8.30
2023-03-15T12:30:23.600Z,8.07
2023-03-15T12:34:52.443Z,28.60
2023-03-15T12:39:15.278Z,21.45
2023-03-15T12:43:43.997Z,7.63
2023-03-15T12:48:00.997Z,5.05
2023-03-15T12:52:39.269Z,6.72
2023-03-15T12:57:05.628Z,6.32
2023-03-15T13:01:25.679Z,4.20
2023-03-15T13:06:08.576Z,7.32
2023-03-15T13:10:46.034Z,7.78
2023-03-15T13:15:09.380Z,7.75
2023-03-15T13:19:30.547Z,8.05
2023-03-15T13:23:54.372Z,9.13
2023-03-15T13:28:27.312Z,9.75
2023-03-15T13:32:44.581Z,9.63
2023-03-15T13:37:04.858Z,8.10
2023-03-15T13:41:29.154Z,9.43
2023-03-15T13:45:46.619Z,8.88
2023-03-15T13:50:06.125Z,8.80
2023-03-15T13:54:33.124Z,6.97
2023-03-15T13:58:51.951Z,7.43
2023-03-15T14:03:16.928Z,5.80
2023-03-15T14:07:40.166Z,9.80
2023-03-15T14:12:02.522Z,8.98
2023-03-15T14:16:57.376Z,13.45
2023-03-15T14:21:21.958Z,11.55
2023-03-15T14:25:39.342Z,7.32
2023-03-15T14:30:01.814Z,5.25
2023-03-15T14:34:37.120Z,8.15
2023-03-15T14:38:56.936Z,6.88
2023-03-15T14:43:14.559Z,7.88
2023-03-15T14:47:32.054Z,7.63
2023-03-15T14:52:01.359Z,8.68
2023-03-15T14:56:19.874Z,7.38
2023-03-15T15:00:37.301Z,11.02
2023-03-15T15:04:54.782Z,7.75
2023-03-15T15:09:11.835Z,8.45
2023-03-15T15:13:30.354Z,7.53
2023-03-15T15:22:05.568Z,7.53
2023-03-15T15:26:26.125Z,3.83
2023-03-15T15:30:43.220Z,4.93
2023-03-15T15:35:00.376Z,5.97
2023-03-15T15:39:29.568Z,6.05
2023-03-15T15:43:46.644Z,6.95
2023-03-15T15:48:05.992Z,5.90
2023-03-15T15:52:23.043Z,8.93
2023-03-15T15:56:51.742Z,9.60
2023-03-15T16:01:13.663Z,8.93
2023-03-15T16:05:32.822Z,8.13
2023-03-15T16:09:55.954Z,3.83
2023-03-15T16:14:14.026Z,5.35
2023-03-15T16:18:32.107Z,3.92
2023-03-15T16:22:53.167Z,4.18
2023-03-15T16:27:17.597Z,4.88
2023-03-15T16:31:35.196Z,4.78
2023-03-15T16:35:53.553Z,5.17
2023-03-15T16:40:21.412Z,14.07
2023-03-15T16:44:38.505Z,18.35
2023-03-15T16:48:55.561Z,10.95
2023-03-15T16:53:13.237Z,7.07
2023-03-15T16:57:30.562Z,5.07
2023-03-15T17:01:49.329Z,5.47
2023-03-15T17:06:13.946Z,11.15
2023-03-15T17:10:32.354Z,6.65
2023-03-15T17:19:14.030Z,3.50
2023-03-15T17:23:32.031Z,5.45
2023-03-15T17:27:50.571Z,2.70
2023-03-15T17:32:11.825Z,2.58
2023-03-15T17:36:34.584Z,3.28
2023-03-15T17:40:53.448Z,6.68
2023-03-15T17:45:18.792Z,8.32
2023-03-15T17:49:35.915Z,10.07
2023-03-15T17:53:53.548Z,17.48
2023-03-15T17:58:16.080Z,15.30
2023-03-15T18:02:35.526Z,18.50
2023-03-15T18:06:53.924Z,13.60
2023-03-15T18:11:33.772Z,10.00
2023-03-15T18:15:51.222Z,9.55
2023-03-15T18:20:13.445Z,7.03
2023-03-15T18:24:31.709Z,5.53
2023-03-15T18:28:49.363Z,6.70
2023-03-15T18:33:06.928Z,7.18
2023-03-15T18:37:24.066Z,28.80
2023-03-15T18:41:41.150Z,26.67
2023-03-15T18:45:58.300Z,20.88
2023-03-15T18:50:16.434Z,24.83
2023-03-15T18:54:33.496Z,19.95
2023-03-15T18:58:51.697Z,13.73
2023-03-15T19:07:27.653Z,12.00
2023-03-15T19:11:44.721Z,19.10
2023-03-15T19:16:02.136Z,15.65
2023-03-15T19:20:23.368Z,16.93
2023-03-15T19:24:40.567Z,15.80
2023-03-15T19:28:57.633Z,12.07
2023-03-15T19:33:14.707Z,19.35
2023-03-15T19:37:31.853Z,15.40
2023-03-15T19:41:48.961Z,14.55
2023-03-15T19:46:07.898Z,10.98
2023-03-15T19:50:25.056Z,15.88
2023-03-15T19:54:42.104Z,15.75
2023-03-15T19:58:59.173Z,16.13
2023-03-15T20:03:16.216Z,16.60
2023-03-15T20:07:33.334Z,14.43
2023-03-15T20:11:50.700Z,19.63
2023-03-15T20:16:08.398Z,19.37
2023-03-15T20:20:25.656Z,20.20
2023-03-15T20:24:44.161Z,19.33
2023-03-15T20:29:01.328Z,18.65
2023-03-15T20:33:18.379Z,19.50
2023-03-15T20:37:37.432Z,19.23
2023-03-15T20:41:54.563Z,18.08
2023-03-15T20:46:13.524Z,22.02
2023-03-15T20:50:30.914Z,16.95
2023-03-15T20:54:48.001Z,12.07
2023-03-15T20:59:05.043Z,14.18
2023-03-15T21:03:22.461Z,21.95
2023-03-15T21:07:41.496Z,14.80
2023-03-15T21:12:01.744Z,16.45
2023-03-15T21:16:18.849Z,23.35
2023-03-15T21:20:35.921Z,21.63
2023-03-15T21:24:56.204Z,15.98
2023-03-15T21:29:13.476Z,17.58
2023-03-15T21:33:31.121Z,12.77
2023-03-15T21:37:48.360Z,15.88
2023-03-15T21:42:05.658Z,17.77
2023-03-15T21:46:23.816Z,18.40
2023-03-15T21:50:41.539Z,18.83
2023-03-15T21:54:58.668Z,15.85
2023-03-15T21:59:15.748Z,16.48
2023-03-15T22:03:34.474Z,19.30
2023-03-15T22:07:51.679Z,15.02
2023-03-15T22:12:09.497Z,18.85
2023-03-15T22:16:26.650Z,17.23
2023-03-15T22:20:46.496Z,16.92
2023-03-15T22:25:03.693Z,17.10
2023-03-15T22:29:20.773Z,19.87
2023-03-15T22:33:37.845Z,17.17
2023-03-15T22:37:56.838Z,21.98
2023-03-15T22:42:13.920Z,23.00
2023-03-15T22:46:34.884Z,18.33
2023-03-15T22:51:03.626Z,18.40
2023-03-15T22:55:21.114Z,12.43
2023-03-15T22:59:41.019Z,16.52
2023-03-15T23:03:58.057Z,22.13
2023-03-15T23:08:15.148Z,21.02
2023-03-15T23:12:36.351Z,18.88
2023-03-15T23:16:53.850Z,28.38
2023-03-15T23:21:14.381Z,18.73
2023-03-15T23:25:36.037Z,21.45
2023-03-15T23:29:54.760Z,20.08
2023-03-15T23:34:13.005Z,20.90
2023-03-15T23:38:30.150Z,19.15
2023-03-15T23:42:47.489Z,19.30
2023-03-15T23:47:06.412Z,22.93
2023-03-15T23:51:23.766Z,24.13
2023-03-15T23:55:41.235Z,21.75
2023-03-15T23:59:58.351Z,21.50
